Time,TemperatureF,DewpointF,PressureIn,WindDirection,WindDirectionDegrees,WindSpeedMPH,WindSpeedGustMPH,Humidity,HourlyPrecipIn,Conditions,Clouds,dailyrainin,SolarRadiationWatts/m^2,SoftwareType,DateUTC
2013-07-19 00:08:00,72.9,72.0,30.09,ENE,57,0.0,-999.0,96,-99.99,,,0.00,0,weatherlink.com 1.10,2013-07-19 04:08:00,
2013-07-19 00:23:00,72.9,72.0,30.09,ENE,57,0.0,-999.0,96,-99.99,,,0.00,0,weatherlink.com 1.10,2013-07-19 04:23:00,
2013-07-19 00:38:00,73.1,72.0,30.09,ENE,57,0.0,-999.0,96,-99.99,,,0.00,0,weatherlink.com 1.10,2013-07-19 04:38:00,
2013-07-19 00:53:00,73.7,73.0,30.09,ENE,57,0.0,-999.0,97,-99.99,,,0.00,0,weatherlink.com 1.10,2013-07-19 04:53:00,
2013-07-19 01:08:00,74.0,73.0,30.09,ENE,57,0.0,-999.0,96,-99.99,,,0.00,0,weatherlink.com 1.10,2013-07-19 05:08:00,
2013-07-19 01:23:00,74.1,73.0,30.09,ENE,57,0.0,-999.0,96,-99.99,,,0.00,0,weatherlink.com 1.10,2013-07-19 05:23:00,
2013-07-19 01:38:00,74.1,73.0,30.09,ENE,57,0.0,-999.0,96,-99.99,,,0.00,0,weatherlink.com 1.10,2013-07-19 05:38:00,
2013-07-19 01:53:00,74.1,73.0,30.09,ENE,57,0.0,-999.0,96,-99.99,,,0.00,0,weatherlink.com 1.10,2013-07-19 05:53:00,
2013-07-19 02:08:00,74.2,73.0,30.08,ENE,57,0.0,-999.0,96,-99.99,,,0.00,0,weatherlink.com 1.10,2013-07-19 06:08:00,
2013-07-19 02:23:00,74.4,74.0,30.08,ENE,57,0.0,-999.0,97,-99.99,,,0.00,0,weatherlink.com 1.10,2013-07-19 06:23:00,
2013-07-19 02:38:00,74.5,74.0,30.08,ENE,57,0.0,-999.0,97,-99.99,,,0.00,0,weatherlink.com 1.10,2013-07-19 06:38:00,
2013-07-19 02:53:00,75.6,75.0,30.08,ENE,57,0.0,-999.0,97,-99.99,,,0.00,0,weatherlink.com 1.10,2013-07-19 06:53:00,
2013-07-19 03:08:00,75.9,75.0,30.08,ENE,57,0.0,-999.0,97,-99.99,,,0.00,0,weatherlink.com 1.10,2013-07-19 07:08:00,
2013-07-19 03:23:00,76.3,75.0,30.08,ENE,57,0.0,-999.0,97,-99.99,,,0.00,0,weatherlink.com 1.10,2013-07-19 07:23:00,
2013-07-19 03:38:00,76.3,75.0,30.08,ENE,57,0.0,-999.0,97,-99.99,,,0.00,0,weatherlink.com 1.10,2013-07-19 07:38:00,
2013-07-19 03:53:00,76.2,75.0,30.08,ENE,57,0.0,-999.0,97,-99.99,,,0.00,0,weatherlink.com 1.10,2013-07-19 07:53:00,
2013-07-19 04:08:00,76.1,75.0,30.08,ENE,57,0.0,-999.0,97,-99.99,,,0.00,0,weatherlink.com 1.10,2013-07-19 08:08:00,
2013-07-19 04:23:00,75.8,75.0,30.08,ENE,57,0.0,-999.0,97,-99.99,,,0.00,0,weatherlink.com 1.10,2013-07-19 08:23:00,
2013-07-19 04:38:00,75.7,75.0,30.08,ENE,57,0.0,-999.0,97,-99.99,,,0.00,0,weatherlink.com 1.10,2013-07-19 08:38:00,
2013-07-19 04:53:00,75.5,75.0,30.08,ENE,57,0.0,-999.0,97,-99.99,,,0.00,0,weatherlink.com 1.10,2013-07-19 08:53:00,
2013-07-19 05:08:00,75.4,75.0,30.08,ENE,57,0.0,-999.0,97,-99.99,,,0.00,0,weatherlink.com 1.10,2013-07-19 09:08:00,
2013-07-19 05:23:00,75.3,74.0,30.07,ENE,57,0.0,-999.0,97,-99.99,,,0.00,0,weatherlink.com 1.10,2013-07-19 09:23:00,
2013-07-19 05:38:00,75.2,74.0,30.08,ENE,57,0.0,-999.0,97,-99.99,,,0.00,0,weatherlink.com 1.10,2013-07-19 09:38:00,
2013-07-19 05:53:00,75.2,74.0,30.07,ENE,57,0.0,-999.0,97,-99.99,,,0.00,0,weatherlink.com 1.10,2013-07-19 09:53:00,
2013-07-19 06:08:00,75.2,74.0,30.07,ENE,57,0.0,-999.0,97,-99.99,,,0.00,0,weatherlink.com 1.10,2013-07-19 10:08:00,
2013-07-19 06:23:00,75.1,74.0,30.08,ENE,57,0.0,-999.0,97,-99.99,,,0.00,0,weatherlink.com 1.10,2013-07-19 10:23:00,
2013-07-19 06:38:00,75.1,74.0,30.08,ENE,57,0.0,-999.0,97,-99.99,,,0.00,0,weatherlink.com 1.10,2013-07-19 10:38:00,
2013-07-19 06:53:00,75.1,74.0,30.09,ENE,57,0.0,-999.0,97,-99.99,,,0.00,7,weatherlink.com 1.10,2013-07-19 10:53:00,
2013-07-19 07:08:00,75.2,74.0,30.09,ENE,57,0.0,-999.0,97,-99.99,,,0.00,21,weatherlink.com 1.10,2013-07-19 11:08:00,
2013-07-19 07:24:00,75.9,75.0,30.09,ENE,57,0.0,-999.0,97,-99.99,,,0.00,40,weatherlink.com 1.10,2013-07-19 11:24:00,
2013-07-19 07:39:00,76.4,76.0,30.09,ENE,74,0.0,-999.0,97,-99.99,,,0.00,62,weatherlink.com 1.10,2013-07-19 11:39:00,
2013-07-19 07:54:00,76.9,76.0,30.09,East,101,2.0,-999.0,97,-99.99,,,0.00,74,weatherlink.com 1.10,2013-07-19 11:54:00,
2013-07-19 08:09:00,77.2,76.0,30.10,ESE,121,0.0,-999.0,97,-99.99,,,0.00,123,weatherlink.com 1.10,2013-07-19 12:09:00,
2013-07-19 08:24:00,77.8,77.0,30.10,ESE,121,0.0,-999.0,97,-99.99,,,0.00,139,weatherlink.com 1.10,2013-07-19 12:24:00,
2013-07-19 08:39:00,77.8,77.0,30.10,SE,138,1.0,-999.0,97,-99.99,,,0.00,148,weatherlink.com 1.10,2013-07-19 12:39:00,
2013-07-19 08:54:00,78.0,77.0,30.10,East,101,0.0,-999.0,96,-99.99,,,0.00,176,weatherlink.com 1.10,2013-07-19 12:54:00,
2013-07-19 09:09:00,79.3,78.0,30.10,ESE,113,0.0,-999.0,96,-99.99,,,0.00,267,weatherlink.com 1.10,2013-07-19 13:09:00,
2013-07-19 09:24:00,80.4,79.0,30.10,East,93,0.0,-999.0,94,-99.99,,,0.00,318,weatherlink.com 1.10,2013-07-19 13:24:00,
2013-07-19 09:39:00,82.6,80.0,30.11,East,80,3.0,-999.0,90,-99.99,,,0.00,485,weatherlink.com 1.10,2013-07-19 13:39:00,
2013-07-19 09:54:00,83.8,79.0,30.11,East,82,1.0,-999.0,84,-99.99,,,0.00,425,weatherlink.com 1.10,2013-07-19 13:54:00,
2013-07-19 10:09:00,83.6,78.0,30.11,ENE,71,0.0,-999.0,83,-99.99,,,0.00,415,weatherlink.com 1.10,2013-07-19 14:09:00,
2013-07-19 10:24:00,83.9,79.0,30.12,SE,146,5.0,-999.0,85,-99.99,,,0.00,388,weatherlink.com 1.10,2013-07-19 14:24:00,
2013-07-19 10:39:00,83.6,78.0,30.12,ESE,111,2.0,-999.0,84,-99.99,,,0.01,503,weatherlink.com 1.10,2013-07-19 14:39:00,
2013-07-19 10:54:00,83.7,78.0,30.12,South,169,2.0,-999.0,83,-99.99,,,0.01,411,weatherlink.com 1.10,2013-07-19 14:54:00,
2013-07-19 11:09:00,83.7,78.0,30.13,ESE,119,0.0,-999.0,84,-99.99,,,0.01,369,weatherlink.com 1.10,2013-07-19 15:09:00,
2013-07-19 11:24:00,83.5,78.0,30.12,ESE,109,2.0,-999.0,82,-99.99,,,0.01,448,weatherlink.com 1.10,2013-07-19 15:24:00,
2013-07-19 11:39:00,84.5,79.0,30.12,ESE,113,0.0,-999.0,82,-99.99,,,0.01,536,weatherlink.com 1.10,2013-07-19 15:39:00,
2013-07-19 11:54:00,84.7,78.0,30.12,ESE,117,0.0,-999.0,81,-99.99,,,0.01,1056,weatherlink.com 1.10,2013-07-19 15:54:00,
2013-07-19 12:09:00,85.8,78.0,30.12,ESE,123,6.0,-999.0,78,-99.99,,,0.01,918,weatherlink.com 1.10,2013-07-19 16:09:00,
2013-07-19 12:24:00,86.4,78.0,30.11,ESE,117,0.0,-999.0,77,-99.99,,,0.01,802,weatherlink.com 1.10,2013-07-19 16:24:00,
2013-07-19 12:39:00,87.1,78.0,30.11,East,97,1.0,-999.0,75,-99.99,,,0.01,958,weatherlink.com 1.10,2013-07-19 16:39:00,
2013-07-19 12:55:00,87.0,78.0,30.11,South,169,4.0,-999.0,75,-99.99,,,0.01,1016,weatherlink.com 1.10,2013-07-19 16:55:00,
2013-07-19 13:10:00,87.2,78.0,30.11,SE,134,8.0,-999.0,74,-99.99,,,0.01,624,weatherlink.com 1.10,2013-07-19 17:10:00,
2013-07-19 13:25:00,87.7,79.0,30.10,East,99,4.0,-999.0,74,-99.99,,,0.01,1171,weatherlink.com 1.10,2013-07-19 17:25:00,
2013-07-19 13:40:00,87.0,78.0,30.09,SE,132,8.0,-999.0,74,-99.99,,,0.01,336,weatherlink.com 1.10,2013-07-19 17:40:00,
2013-07-19 13:55:00,85.5,78.0,30.09,ESE,116,4.0,-999.0,78,-99.99,,,0.01,287,weatherlink.com 1.10,2013-07-19 17:55:00,
2013-07-19 14:10:00,85.8,78.0,30.09,ESE,105,4.0,-999.0,78,-99.99,,,0.01,494,weatherlink.com 1.10,2013-07-19 18:10:00,
2013-07-19 14:25:00,86.8,78.0,30.09,ESE,111,0.0,-999.0,76,-99.99,,,0.01,1100,weatherlink.com 1.10,2013-07-19 18:25:00,
2013-07-19 14:40:00,87.3,80.0,30.08,South,188,8.0,-999.0,78,-99.99,,,0.01,1023,weatherlink.com 1.10,2013-07-19 18:40:00,
2013-07-19 14:55:00,88.2,79.0,30.07,East,82,2.0,-999.0,75,-99.99,,,0.01,1067,weatherlink.com 1.10,2013-07-19 18:55:00,
2013-07-19 15:10:00,86.9,79.0,30.07,SE,128,1.0,-999.0,76,-99.99,,,0.01,297,weatherlink.com 1.10,2013-07-19 19:10:00,
2013-07-19 15:25:00,86.2,78.0,30.07,ESE,119,9.0,-999.0,77,-99.99,,,0.01,772,weatherlink.com 1.10,2013-07-19 19:25:00,
2013-07-19 15:40:00,86.0,78.0,30.07,ESE,118,1.0,-999.0,78,-99.99,,,0.01,394,weatherlink.com 1.10,2013-07-19 19:40:00,
2013-07-19 15:55:00,85.7,79.0,30.06,ENE,67,1.0,-999.0,79,-99.99,,,0.01,359,weatherlink.com 1.10,2013-07-19 19:55:00,
2013-07-19 16:10:00,85.7,79.0,30.06,ESE,118,6.0,-999.0,79,-99.99,,,0.01,427,weatherlink.com 1.10,2013-07-19 20:10:00,
2013-07-19 16:25:00,85.7,78.0,30.06,East,100,2.0,-999.0,78,-99.99,,,0.01,788,weatherlink.com 1.10,2013-07-19 20:25:00,
2013-07-19 16:40:00,87.2,79.0,30.06,East,85,3.0,-999.0,76,-99.99,,,0.01,881,weatherlink.com 1.10,2013-07-19 20:40:00,
2013-07-19 16:55:00,86.7,78.0,30.06,East,100,4.0,-999.0,76,-99.99,,,0.01,255,weatherlink.com 1.10,2013-07-19 20:55:00,
2013-07-19 17:10:00,86.0,78.0,30.05,ENE,68,5.0,-999.0,77,-99.99,,,0.01,257,weatherlink.com 1.10,2013-07-19 21:10:00,
2013-07-19 17:25:00,86.1,79.0,30.05,East,101,1.0,-999.0,78,-99.99,,,0.01,248,weatherlink.com 1.10,2013-07-19 21:25:00,
2013-07-19 17:40:00,85.2,77.0,30.05,East,91,0.0,-999.0,77,-99.99,,,0.01,100,weatherlink.com 1.10,2013-07-19 21:40:00,
2013-07-19 17:55:00,84.4,78.0,30.05,East,101,0.0,-999.0,80,-99.99,,,0.01,76,weatherlink.com 1.10,2013-07-19 21:55:00,
2013-07-19 18:10:00,84.3,78.0,30.05,ESE,122,4.0,-999.0,81,-99.99,,,0.01,98,weatherlink.com 1.10,2013-07-19 22:10:00,
2013-07-19 18:25:00,84.2,78.0,30.05,East,98,0.0,-999.0,81,-99.99,,,0.01,343,weatherlink.com 1.10,2013-07-19 22:25:00,
2013-07-19 18:40:00,84.6,78.0,30.04,NE,51,0.0,-999.0,80,-99.99,,,0.01,77,weatherlink.com 1.10,2013-07-19 22:40:00,
2013-07-19 18:55:00,84.3,78.0,30.04,ESE,120,2.0,-999.0,81,-99.99,,,0.01,206,weatherlink.com 1.10,2013-07-19 22:55:00,
2013-07-19 19:10:00,84.2,78.0,30.04,East,91,0.0,-999.0,81,-99.99,,,0.01,79,weatherlink.com 1.10,2013-07-19 23:10:00,
2013-07-19 19:25:00,84.0,78.0,30.05,ENE,76,1.0,-999.0,82,-99.99,,,0.01,88,weatherlink.com 1.10,2013-07-19 23:25:00,
2013-07-19 19:40:00,83.6,78.0,30.06,East,92,4.0,-999.0,82,-99.99,,,0.01,16,weatherlink.com 1.10,2013-07-19 23:40:00,
2013-07-19 19:55:00,83.2,78.0,30.05,ENE,78,1.0,-999.0,83,-99.99,,,0.01,5,weatherlink.com 1.10,2013-07-19 23:55:00,
2013-07-19 20:10:00,82.8,78.0,30.06,East,89,0.0,-999.0,84,-99.99,,,0.01,0,weatherlink.com 1.10,2013-07-20 00:10:00,
2013-07-19 20:25:00,82.5,77.0,30.06,East,82,0.0,-999.0,84,-99.99,,,0.01,0,weatherlink.com 1.10,2013-07-20 00:25:00,
2013-07-19 20:40:00,82.4,77.0,30.06,ENE,77,0.0,-999.0,84,-99.99,,,0.01,0,weatherlink.com 1.10,2013-07-20 00:40:00,
2013-07-19 20:55:00,82.4,78.0,30.08,East,86,0.0,-999.0,85,-99.99,,,0.01,0,weatherlink.com 1.10,2013-07-20 00:55:00,
2013-07-19 21:10:00,82.2,77.0,30.09,ESE,123,0.0,-999.0,85,-99.99,,,0.01,0,weatherlink.com 1.10,2013-07-20 01:10:00,
2013-07-19 21:25:00,82.1,78.0,30.09,East,86,0.0,-999.0,86,-99.99,,,0.01,0,weatherlink.com 1.10,2013-07-20 01:25:00,
2013-07-19 21:40:00,82.1,78.0,30.09,East,94,0.0,-999.0,86,-99.99,,,0.01,0,weatherlink.com 1.10,2013-07-20 01:40:00,
2013-07-19 21:55:00,82.0,78.0,30.10,ESE,114,0.0,-999.0,86,-99.99,,,0.01,0,weatherlink.com 1.10,2013-07-20 01:55:00,
2013-07-19 22:10:00,82.0,78.0,30.10,East,83,0.0,-999.0,86,-99.99,,,0.01,0,weatherlink.com 1.10,2013-07-20 02:10:00,
2013-07-19 22:25:00,82.0,78.0,30.11,East,99,0.0,-999.0,87,-99.99,,,0.01,0,weatherlink.com 1.10,2013-07-20 02:25:00,
2013-07-19 22:40:00,82.0,78.0,30.11,East,97,0.0,-999.0,87,-99.99,,,0.01,0,weatherlink.com 1.10,2013-07-20 02:40:00,
2013-07-19 22:55:00,81.9,78.0,30.12,ESE,123,1.0,-999.0,87,-99.99,,,0.01,0,weatherlink.com 1.10,2013-07-20 02:55:00,
2013-07-19 23:10:00,81.9,77.0,30.12,SSE,162,4.0,-999.0,86,-99.99,,,0.01,0,weatherlink.com 1.10,2013-07-20 03:10:00,
2013-07-19 23:25:00,81.8,78.0,30.12,ESE,106,0.0,-999.0,87,-99.99,,,0.01,0,weatherlink.com 1.10,2013-07-20 03:25:00,
2013-07-19 23:40:00,81.8,78.0,30.12,ESE,111,4.0,-999.0,87,-99.99,,,0.01,0,weatherlink.com 1.10,2013-07-20 03:40:00,
2013-07-19 23:55:00,81.8,78.0,30.11,ESE,118,0.0,-999.0,87,-99.99,,,0.00,0,weatherlink.com 1.10,2013-07-20 03:55:00,